Time;durP1;ratioP1;P1;durP2;ratioP2;P2;SDS_P1;SDS_P2;PMS_P1;PMS_P2;Temp;Humidity;BMP_temperature;BMP_pressure;BME280_temperature;BME280_humidity;BME280_pressure;Samples;Min_cycle;Max_cycle;Signal;HPM_P1;HPM_P2
2024/03/07 00:00:15;;;;;;;40.15;29.60;;;4.80;99.90;;;;;;5128795;27;20038;-67
2024/03/07 00:02:47;;;;;;;34.33;29.48;;;4.80;99.90;;;;;;5126609;27;20055;-66
2024/03/07 00:05:14;;;;;;;40.33;29.55;;;4.80;99.90;;;;;;5131194;27;20031;-67
2024/03/07 00:07:40;;;;;;;38.58;29.48;;;4.80;99.90;;;;;;5128392;27;20053;-67
2024/03/07 00:10:07;;;;;;;35.75;27.98;;;4.90;99.90;;;;;;5128228;27;20031;-67
2024/03/07 00:12:40;;;;;;;41.10;29.17;;;4.80;99.90;;;;;;5130002;27;20496;-67
2024/03/07 00:15:07;;;;;;;38.00;27.60;;;4.80;99.90;;;;;;5112775;27;20039;-67
2024/03/07 00:17:33;;;;;;;40.75;30.17;;;4.80;99.90;;;;;;5108404;27;20425;-67
2024/03/07 00:19:58;;;;;;;37.70;27.83;;;4.70;99.90;;;;;;5110432;27;20046;-66
2024/03/07 00:22:26;;;;;;;39.38;29.60;;;4.70;99.90;;;;;;5129726;27;20034;-67
2024/03/07 00:24:53;;;;;;;36.47;28.85;;;4.70;99.90;;;;;;5127198;27;20404;-67
2024/03/07 00:27:20;;;;;;;40.63;28.27;;;4.60;99.90;;;;;;5113761;27;20757;-66
2024/03/07 00:29:52;;;;;;;40.95;27.92;;;4.60;99.90;;;;;;5143741;27;20134;-66
2024/03/07 00:32:19;;;;;;;33.78;25.92;;;4.60;99.90;;;;;;5118460;27;20443;-67
2024/03/07 00:34:44;;;;;;;35.35;26.15;;;4.60;99.90;;;;;;5106300;27;20046;-67
2024/03/07 00:37:10;;;;;;;37.30;25.17;;;4.60;99.90;;;;;;5138517;27;20049;-67
2024/03/07 00:39:35;;;;;;;29.70;23.65;;;4.60;99.90;;;;;;5112286;27;20043;-66
2024/03/07 00:42:02;;;;;;;33.80;23.38;;;4.60;99.90;;;;;;5112835;27;20461;-66
2024/03/07 00:44:27;;;;;;;30.25;24.10;;;4.60;99.90;;;;;;5147895;27;20042;-66
2024/03/07 00:46:53;;;;;;;30.65;23.58;;;4.70;99.90;;;;;;5145213;27;20126;-67
2024/03/07 00:49:18;;;;;;;30.60;23.48;;;4.60;99.90;;;;;;5124408;27;20527;-67
2024/03/07 00:51:44;;;;;;;26.55;22.95;;;4.60;99.90;;;;;;5130941;27;20043;-66
2024/03/07 00:54:12;;;;;;;28.67;22.30;;;4.50;99.90;;;;;;5127102;27;20436;-67
2024/03/07 00:56:39;;;;;;;31.90;23.85;;;4.50;99.90;;;;;;5129104;27;20123;-67
2024/03/07 00:59:05;;;;;;;31.80;24.08;;;4.50;99.90;;;;;;5111323;27;20062;-67
2024/03/07 01:01:33;;;;;;;29.33;23.15;;;4.40;99.90;;;;;;5110646;27;20054;-67
2024/03/07 01:04:00;;;;;;;31.45;23.98;;;4.40;99.90;;;;;;5128515;27;20398;-67
2024/03/07 01:06:26;;;;;;;31.50;24.23;;;4.30;99.90;;;;;;5108330;27;20096;-67
2024/03/07 01:08:51;;;;;;;30.98;22.73;;;4.30;99.90;;;;;;5113118;27;20440;-67
2024/03/07 01:11:17;;;;;;;28.67;23.50;;;4.30;99.90;;;;;;5111859;27;20043;-66
2024/03/07 01:13:43;;;;;;;25.92;23.20;;;4.30;99.90;;;;;;5113519;27;20046;-66
2024/03/07 01:16:09;;;;;;;31.75;24.85;;;4.30;99.90;;;;;;5125857;27;20054;-67
2024/03/07 01:18:35;;;;;;;27.83;21.45;;;4.30;99.90;;;;;;5127454;27;20043;-67
2024/03/07 01:21:05;;;;;;;27.83;22.65;;;4.20;99.90;;;;;;5122655;27;20039;-67
2024/03/07 01:23:31;;;;;;;28.40;22.13;;;4.20;99.90;;;;;;5142594;27;20046;-67
2024/03/07 01:25:58;;;;;;;30.70;23.95;;;4.20;99.90;;;;;;5127652;27;20066;-67
2024/03/07 01:28:25;;;;;;;28.05;22.65;;;4.10;99.90;;;;;;5125925;27;20031;-67
2024/03/07 01:30:52;;;;;;;27.27;22.13;;;4.10;99.90;;;;;;5111276;27;20045;-67
2024/03/07 01:33:19;;;;;;;29.10;22.52;;;4.10;99.90;;;;;;5125302;27;20050;-67
2024/03/07 01:35:45;;;;;;;26.50;21.75;;;4.00;99.90;;;;;;5110534;27;20041;-67
2024/03/07 01:38:11;;;;;;;26.00;20.08;;;4.00;99.90;;;;;;5105747;27;20051;-67
2024/03/07 01:40:36;;;;;;;27.45;22.67;;;4.00;99.90;;;;;;5113286;27;20050;-67
2024/03/07 01:43:03;;;;;;;28.48;22.40;;;3.90;99.90;;;;;;5127714;27;20028;-67
2024/03/07 01:45:28;;;;;;;25.00;21.45;;;3.90;99.90;;;;;;5114439;27;20035;-66
2024/03/07 01:47:55;;;;;;;23.17;19.90;;;3.90;99.90;;;;;;5109952;27;20099;-67
2024/03/07 01:50:21;;;;;;;24.67;20.90;;;3.80;99.90;;;;;;5108982;27;20046;-67
2024/03/07 01:52:50;;;;;;;29.58;21.52;;;3.80;99.90;;;;;;5108738;27;20047;-67
2024/03/07 01:55:16;;;;;;;27.60;20.77;;;3.70;99.90;;;;;;5110698;27;20987;-67
2024/03/07 01:57:42;;;;;;;25.77;20.67;;;3.70;99.90;;;;;;5108793;27;20031;-67
2024/03/07 02:00:09;;;;;;;28.52;21.88;;;3.70;99.90;;;;;;5143417;27;20096;-66
2024/03/07 02:02:35;;;;;;;27.83;21.50;;;3.70;99.90;;;;;;5141125;27;20043;-66
2024/03/07 02:05:02;;;;;;;26.27;21.48;;;3.50;99.90;;;;;;5141872;27;20035;-67
2024/03/07 02:07:27;;;;;;;26.58;20.75;;;3.50;99.90;;;;;;5109350;27;20489;-67
2024/03/07 02:10:06;;;;;;;30.63;20.17;;;3.50;99.90;;;;;;5142756;27;20077;-67
2024/03/07 02:12:32;;;;;;;24.30;21.23;;;3.40;99.90;;;;;;5111128;27;20036;-67
2024/03/07 02:14:58;;;;;;;29.13;21.23;;;3.30;99.90;;;;;;5108070;27;20043;-67
2024/03/07 02:17:27;;;;;;;29.42;21.88;;;3.20;99.90;;;;;;5140144;27;20035;-67
2024/03/07 02:19:53;;;;;;;29.25;21.48;;;3.10;99.90;;;;;;5124784;27;20031;-67
2024/03/07 02:22:19;;;;;;;30.98;22.98;;;3.10;99.90;;;;;;5144344;27;20034;-67
2024/03/07 02:24:46;;;;;;;28.25;22.58;;;3.00;99.90;;;;;;5112933;27;20129;-67
2024/03/07 02:27:14;;;;;;;28.65;22.70;;;3.10;99.90;;;;;;5119994;27;20476;-67
2024/03/07 02:29:41;;;;;;;30.50;22.08;;;3.10;99.90;;;;;;5146253;27;20050;-67
2024/03/07 02:32:07;;;;;;;27.02;22.17;;;3.10;99.90;;;;;;5114181;27;20134;-66
2024/03/07 02:34:34;;;;;;;26.38;22.77;;;3.10;99.90;;;;;;5150641;27;20135;-66
2024/03/07 02:36:59;;;;;;;25.75;22.27;;;3.20;99.90;;;;;;5125760;27;20039;-66
2024/03/07 02:39:25;;;;;;;30.50;22.55;;;3.20;99.90;;;;;;5107066;27;20152;-66
2024/03/07 02:41:51;;;;;;;28.30;22.05;;;3.10;99.90;;;;;;5129269;27;20042;-66
2024/03/07 02:44:17;;;;;;;28.42;21.80;;;3.10;99.90;;;;;;5153456;27;20027;-66
2024/03/07 02:46:42;;;;;;;25.70;21.42;;;3.10;99.90;;;;;;5144313;27;20485;-66
2024/03/07 02:49:09;;;;;;;28.52;21.30;;;3.10;99.90;;;;;;5112441;27;20044;-67
2024/03/07 02:51:35;;;;;;;25.70;21.45;;;3.10;99.90;;;;;;5130706;27;20488;-67
2024/03/07 02:54:01;;;;;;;27.02;21.52;;;3.10;99.90;;;;;;5128152;27;20038;-67
2024/03/07 02:56:26;;;;;;;24.52;20.92;;;3.00;99.90;;;;;;5109521;27;20035;-66
2024/03/07 02:58:52;;;;;;;30.02;22.05;;;3.00;99.90;;;;;;5122905;27;20965;-66
2024/03/07 03:01:18;;;;;;;25.92;21.20;;;2.90;99.90;;;;;;5114226;27;20035;-67
2024/03/07 03:03:44;;;;;;;31.02;22.60;;;2.90;99.90;;;;;;5109594;27;20039;-67
2024/03/07 03:06:11;;;;;;;32.05;21.50;;;2.90;99.90;;;;;;5113829;27;20122;-67
2024/03/07 03:08:36;;;;;;;25.33;20.80;;;2.90;99.90;;;;;;5143578;27;20149;-67
2024/03/07 03:11:03;;;;;;;30.20;21.58;;;2.90;99.90;;;;;;5112348;27;20119;-67
2024/03/07 03:13:29;;;;;;;28.67;21.08;;;2.90;99.90;;;;;;5131005;27;20043;-67
2024/03/07 03:15:58;;;;;;;25.58;22.55;;;2.90;99.90;;;;;;5115290;27;20039;-67
2024/03/07 03:18:23;;;;;;;26.35;20.95;;;2.90;99.90;;;;;;5131794;27;20090;-66
2024/03/07 03:20:52;;;;;;;30.65;22.15;;;2.80;99.90;;;;;;5130554;27;20516;-67
2024/03/07 03:23:18;;;;;;;26.63;20.98;;;2.80;99.90;;;;;;5144596;27;20041;-67
2024/03/07 03:25:45;;;;;;;24.23;20.88;;;2.80;99.90;;;;;;5105460;27;20035;-67
2024/03/07 03:28:11;;;;;;;29.75;22.08;;;2.80;99.90;;;;;;5128456;27;20443;-66
2024/03/07 03:30:41;;;;;;;25.92;20.98;;;2.80;99.90;;;;;;5109769;27;20039;-66
2024/03/07 03:33:07;;;;;;;24.35;19.77;;;2.70;99.90;;;;;;5107497;27;20043;-66
2024/03/07 03:35:39;;;;;;;26.90;21.33;;;2.70;99.90;;;;;;5112346;27;20051;-66
2024/03/07 03:38:06;;;;;;;24.83;20.00;;;2.60;99.90;;;;;;5112344;27;20082;-67
2024/03/07 03:40:32;;;;;;;24.38;19.80;;;2.60;99.90;;;;;;5126707;27;20040;-66
2024/03/07 03:42:58;;;;;;;23.45;18.67;;;2.60;99.90;;;;;;5145135;27;20040;-66
2024/03/07 03:45:25;;;;;;;22.77;18.58;;;2.60;99.90;;;;;;5149059;27;20047;-67
2024/03/07 03:47:51;;;;;;;22.65;18.98;;;2.50;99.90;;;;;;5120053;27;20066;-67
2024/03/07 03:50:20;;;;;;;25.58;19.63;;;2.50;99.90;;;;;;5128916;27;20031;-67
2024/03/07 03:52:46;;;;;;;28.65;20.02;;;2.50;99.90;;;;;;5130853;27;20426;-67
2024/03/07 03:55:12;;;;;;;21.65;19.20;;;2.40;99.90;;;;;;5113148;27;20038;-67
2024/03/07 03:57:42;;;;;;;26.75;20.77;;;2.30;99.90;;;;;;5109905;27;20091;-67
2024/03/07 04:00:16;;;;;;;24.15;20.77;;;2.20;99.90;;;;;;5142462;27;20039;-67
2024/03/07 04:02:43;;;;;;;24.90;19.65;;;2.30;99.90;;;;;;5133445;27;20469;-67
2024/03/07 04:05:10;;;;;;;23.30;19.27;;;2.20;99.90;;;;;;5142762;27;20063;-66
2024/03/07 04:07:40;;;;;;;25.58;20.02;;;2.30;99.90;;;;;;5130060;27;21444;-66
2024/03/07 04:10:07;;;;;;;27.95;19.92;;;2.20;99.90;;;;;;5130249;27;20035;-66
2024/03/07 04:12:37;;;;;;;27.70;20.90;;;2.20;99.90;;;;;;5117970;27;20035;-67
2024/03/07 04:15:11;;;;;;;22.48;19.23;;;2.20;99.90;;;;;;5126050;27;20753;-67
2024/03/07 04:17:38;;;;;;;25.75;19.00;;;2.20;99.90;;;;;;5108375;27;20473;-67
2024/03/07 04:20:06;;;;;;;22.48;19.17;;;2.10;99.90;;;;;;5113182;27;20632;-67
2024/03/07 04:22:35;;;;;;;26.48;19.40;;;2.20;99.90;;;;;;5128353;27;20591;-67
2024/03/07 04:25:02;;;;;;;25.42;20.50;;;2.10;99.90;;;;;;5128438;27;20039;-67
2024/03/07 04:27:28;;;;;;;21.10;18.23;;;2.50;99.90;;;;;;5128514;27;20046;-67
2024/03/07 04:29:54;;;;;;;26.50;19.73;;;2.10;99.90;;;;;;5125535;27;20126;-67
2024/03/07 04:32:19;;;;;;;25.92;19.30;;;2.00;99.90;;;;;;5127389;27;20127;-67
2024/03/07 04:34:45;;;;;;;30.00;18.63;;;2.10;99.90;;;;;;5130636;27;20131;-66
2024/03/07 04:37:11;;;;;;;21.08;18.83;;;2.00;99.90;;;;;;5144404;27;20040;-67
2024/03/07 04:39:41;;;;;;;26.88;18.90;;;2.00;99.90;;;;;;5108611;27;20039;-66
2024/03/07 04:42:07;;;;;;;23.85;18.95;;;2.00;99.90;;;;;;5132226;27;20026;-66
2024/03/07 04:44:39;;;;;;;23.27;18.80;;;2.00;99.90;;;;;;5130086;27;20550;-67
2024/03/07 04:47:05;;;;;;;22.10;18.13;;;1.90;99.90;;;;;;5142602;27;20070;-66
2024/03/07 04:49:32;;;;;;;24.38;18.05;;;1.90;99.90;;;;;;5145696;27;20069;-67
2024/03/07 04:52:00;;;;;;;22.40;18.88;;;1.90;99.90;;;;;;5111749;27;20042;-67
2024/03/07 04:54:26;;;;;;;23.88;18.73;;;1.90;99.90;;;;;;5125183;27;20039;-67
2024/03/07 04:56:53;;;;;;;24.60;18.65;;;1.80;99.90;;;;;;5131283;27;20043;-67
2024/03/07 04:59:20;;;;;;;25.23;18.77;;;1.80;99.90;;;;;;5112352;27;20085;-67
2024/03/07 05:01:47;;;;;;;25.15;18.38;;;1.80;99.90;;;;;;5145776;27;20473;-67
2024/03/07 05:04:14;;;;;;;23.23;18.60;;;1.80;99.90;;;;;;5140692;27;20035;-67
2024/03/07 05:06:40;;;;;;;25.00;18.65;;;1.70;99.90;;;;;;5126111;27;20043;-67
2024/03/07 05:09:07;;;;;;;23.08;18.13;;;1.70;99.90;;;;;;5145698;27;20054;-66
2024/03/07 05:11:34;;;;;;;21.55;17.95;;;1.70;99.90;;;;;;5144576;27;20042;-66
2024/03/07 05:14:00;;;;;;;23.98;18.13;;;1.70;99.90;;;;;;5125952;27;20035;-67
2024/03/07 05:16:27;;;;;;;22.70;19.27;;;1.70;99.90;;;;;;5118948;27;20118;-67
2024/03/07 05:18:53;;;;;;;21.63;18.42;;;1.70;99.90;;;;;;5098682;27;20051;-67
2024/03/07 05:21:37;;;;;;;20.85;18.27;;;1.60;99.90;;;;;;5120883;27;20035;-66
2024/03/07 05:24:04;;;;;;;26.60;18.25;;;1.60;99.90;;;;;;5124037;27;20039;-67
2024/03/07 05:26:42;;;;;;;21.52;19.17;;;1.60;99.90;;;;;;5107173;27;20070;-67
2024/03/07 05:29:09;;;;;;;23.02;18.75;;;1.60;99.90;;;;;;5103381;27;20127;-66
2024/03/07 05:31:36;;;;;;;23.83;18.15;;;1.60;99.90;;;;;;5104670;27;20121;-66
2024/03/07 05:34:08;;;;;;;21.77;17.88;;;1.60;99.90;;;;;;5107891;27;20108;-66
2024/03/07 05:36:46;;;;;;;20.45;16.42;;;1.50;99.90;;;;;;5122450;27;20071;-67
2024/03/07 05:39:17;;;;;;;20.83;17.98;;;1.50;99.90;;;;;;5106461;27;20058;-67
2024/03/07 05:41:48;;;;;;;18.40;15.80;;;1.40;99.90;;;;;;5109755;27;20131;-66
2024/03/07 05:44:14;;;;;;;19.58;16.88;;;1.40;99.90;;;;;;5107490;27;20050;-67
2024/03/07 05:46:46;;;;;;;23.17;17.10;;;1.40;99.90;;;;;;5102534;27;20042;-67
2024/03/07 05:49:20;;;;;;;21.58;17.55;;;1.40;99.90;;;;;;5100041;27;20039;-67
2024/03/07 05:51:45;;;;;;;22.23;18.38;;;1.40;99.90;;;;;;5100378;27;20047;-67
2024/03/07 05:54:14;;;;;;;23.27;18.27;;;1.40;99.90;;;;;;5101502;27;20105;-67
2024/03/07 05:56:40;;;;;;;20.65;17.35;;;1.50;99.90;;;;;;5138068;27;20031;-67
2024/03/07 05:59:07;;;;;;;21.92;18.40;;;1.40;99.90;;;;;;5117986;27;20036;-67
2024/03/07 06:01:36;;;;;;;21.08;18.10;;;1.40;99.90;;;;;;5103749;27;20035;-67
2024/03/07 06:04:05;;;;;;;21.13;18.27;;;1.40;99.90;;;;;;5119446;27;20035;-67
2024/03/07 06:06:32;;;;;;;22.45;18.38;;;1.40;99.90;;;;;;5121341;27;20040;-66
2024/03/07 06:09:03;;;;;;;21.05;17.90;;;1.50;99.90;;;;;;5101772;27;20047;-66
2024/03/07 06:11:28;;;;;;;21.90;18.15;;;1.50;99.90;;;;;;5121409;27;20028;-66
2024/03/07 06:13:54;;;;;;;20.45;18.08;;;1.40;99.90;;;;;;5123787;27;20088;-67
2024/03/07 06:16:20;;;;;;;23.73;19.38;;;1.50;99.90;;;;;;5106786;27;20035;-67
2024/03/07 06:18:47;;;;;;;24.45;20.00;;;1.50;99.90;;;;;;5117174;27;20496;-67
2024/03/07 06:21:13;;;;;;;23.05;17.55;;;1.50;99.90;;;;;;5111604;27;20039;-66
2024/03/07 06:23:39;;;;;;;23.35;18.92;;;1.50;99.90;;;;;;5101191;27;20040;-67
2024/03/07 06:26:12;;;;;;;22.17;19.05;;;1.50;99.90;;;;;;5135903;27;20043;-67
2024/03/07 06:28:39;;;;;;;22.33;18.98;;;1.50;99.90;;;;;;5102072;27;20053;-67
2024/03/07 06:31:07;;;;;;;21.85;18.63;;;1.70;99.90;;;;;;5101400;27;20061;-67
2024/03/07 06:33:33;;;;;;;21.73;19.00;;;1.70;99.90;;;;;;5105600;27;21001;-67
2024/03/07 06:36:00;;;;;;;20.45;18.08;;;1.70;99.90;;;;;;5102756;27;20078;-67
2024/03/07 06:38:26;;;;;;;20.75;17.80;;;1.90;99.90;;;;;;5100276;27;20055;-67
2024/03/07 06:40:52;;;;;;;22.02;19.33;;;1.90;99.90;;;;;;5134309;27;20035;-67
2024/03/07 06:43:18;;;;;;;19.15;16.98;;;2.10;99.90;;;;;;5117327;27;20503;-66
2024/03/07 06:45:46;;;;;;;19.88;17.73;;;2.20;99.90;;;;;;5120235;27;20397;-67
2024/03/07 06:48:14;;;;;;;18.75;16.52;;;2.50;99.90;;;;;;5104267;27;20080;-67
2024/03/07 06:50:39;;;;;;;19.67;16.90;;;2.90;99.90;;;;;;5090187;27;20047;-67
2024/03/07 06:53:09;;;;;;;17.40;15.18;;;3.30;99.90;;;;;;5120068;27;20040;-66
2024/03/07 06:55:34;;;;;;;17.88;16.08;;;3.50;99.90;;;;;;5138348;27;20031;-66
2024/03/07 06:58:00;;;;;;;17.40;15.63;;;3.60;99.90;;;;;;5117627;27;20039;-67
2024/03/07 07:00:27;;;;;;;16.33;14.80;;;3.70;99.90;;;;;;5119060;27;20496;-67
2024/03/07 07:02:54;;;;;;;16.45;14.85;;;3.80;99.90;;;;;;5123220;27;20472;-67
2024/03/07 07:05:21;;;;;;;16.45;14.85;;;3.90;99.90;;;;;;5134588;27;20039;-66
2024/03/07 07:07:47;;;;;;;16.13;14.57;;;4.10;99.90;;;;;;5123339;27;20031;-67
2024/03/07 07:10:23;;;;;;;17.58;15.77;;;4.20;99.90;;;;;;5105949;27;20043;-67
2024/03/07 07:12:49;;;;;;;16.13;14.48;;;4.30;99.90;;;;;;5102608;27;20499;-66
2024/03/07 07:15:18;;;;;;;16.85;15.25;;;4.30;99.90;;;;;;5120985;27;20043;-67
2024/03/07 07:17:46;;;;;;;16.55;14.80;;;4.10;99.90;;;;;;5135872;27;20422;-67
2024/03/07 07:20:14;;;;;;;17.60;15.93;;;4.00;99.90;;;;;;5107125;27;20048;-67
2024/03/07 07:22:47;;;;;;;17.98;16.27;;;4.00;99.90;;;;;;5101864;27;20040;-67
2024/03/07 07:25:16;;;;;;;17.50;15.70;;;3.90;99.90;;;;;;5107400;27;20035;-67
2024/03/07 07:27:47;;;;;;;17.98;16.08;;;3.90;99.90;;;;;;5134790;27;20043;-67
2024/03/07 07:30:15;;;;;;;19.42;17.42;;;3.90;99.90;;;;;;5121146;27;20386;-67
2024/03/07 07:32:42;;;;;;;18.17;16.42;;;3.90;99.90;;;;;;5131509;27;20043;-66
2024/03/07 07:35:12;;;;;;;21.25;17.48;;;3.90;99.90;;;;;;5101645;27;20079;-67
2024/03/07 07:37:38;;;;;;;18.90;17.00;;;3.80;99.90;;;;;;5103302;27;20074;-66
2024/03/07 07:40:07;;;;;;;20.00;17.98;;;3.80;99.90;;;;;;5116967;27;20104;-67
2024/03/07 07:42:34;;;;;;;18.85;16.75;;;3.70;99.90;;;;;;5135431;27;20042;-66
2024/03/07 07:45:00;;;;;;;20.67;17.40;;;3.60;99.90;;;;;;5099794;27;20043;-67
2024/03/07 07:47:26;;;;;;;21.55;18.48;;;3.50;99.90;;;;;;5106589;27;20048;-67
2024/03/07 07:49:51;;;;;;;20.88;18.65;;;3.40;99.90;;;;;;5119131;27;20031;-66
2024/03/07 07:52:17;;;;;;;24.13;20.77;;;3.50;99.90;;;;;;5121918;27;20036;-66
2024/03/07 07:54:43;;;;;;;23.60;21.20;;;3.40;99.90;;;;;;5135708;27;20075;-67
2024/03/07 07:57:09;;;;;;;24.65;22.05;;;3.40;99.90;;;;;;5123768;27;20159;-67
2024/03/07 07:59:35;;;;;;;24.02;21.35;;;3.50;99.90;;;;;;5113845;27;20040;-67
2024/03/07 08:02:01;;;;;;;27.17;24.30;;;3.50;99.90;;;;;;5107118;27;20039;-67
2024/03/07 08:04:26;;;;;;;30.13;25.55;;;3.50;99.90;;;;;;5138960;27;20045;-66
2024/03/07 08:06:52;;;;;;;31.60;25.13;;;3.40;99.90;;;;;;5125233;27;20485;-67
2024/03/07 08:09:18;;;;;;;31.55;26.02;;;3.20;99.90;;;;;;5103137;27;20138;-66
2024/03/07 08:11:43;;;;;;;32.83;25.48;;;3.10;99.90;;;;;;5104813;27;20126;-66
2024/03/07 08:14:09;;;;;;;31.27;27.10;;;3.00;99.90;;;;;;5099868;27;20580;-67
2024/03/07 08:16:35;;;;;;;29.75;25.45;;;2.80;99.90;;;;;;5102677;27;20087;-67
2024/03/07 08:19:03;;;;;;;32.15;26.58;;;2.70;99.90;;;;;;5101981;27;20486;-67
2024/03/07 08:21:28;;;;;;;33.00;27.00;;;2.70;99.90;;;;;;5135493;27;20543;-67
2024/03/07 08:23:55;;;;;;;34.17;27.58;;;2.70;99.90;;;;;;5124246;27;20120;-67
2024/03/07 08:26:20;;;;;;;38.13;29.55;;;2.70;99.90;;;;;;5139679;27;20047;-67
2024/03/07 08:28:46;;;;;;;36.88;29.50;;;2.70;99.90;;;;;;5097811;27;20080;-67
2024/03/07 08:31:12;;;;;;;37.47;27.90;;;2.60;99.90;;;;;;5104756;27;20096;-67
2024/03/07 08:33:38;;;;;;;34.60;27.92;;;2.60;99.90;;;;;;5095778;27;20047;-66
2024/03/07 08:36:04;;;;;;;38.17;28.63;;;2.50;99.90;;;;;;5123671;27;20377;-67
2024/03/07 08:38:30;;;;;;;38.47;28.45;;;2.50;99.90;;;;;;5101524;27;20111;-67
2024/03/07 08:40:56;;;;;;;37.95;27.60;;;2.40;99.90;;;;;;5121724;27;20035;-67
2024/03/07 08:43:22;;;;;;;40.70;28.52;;;2.40;99.90;;;;;;5104785;27;20043;-67
2024/03/07 08:45:47;;;;;;;38.90;28.33;;;2.40;99.90;;;;;;5119544;27;20105;-66
2024/03/07 08:48:14;;;;;;;37.78;28.42;;;2.40;99.90;;;;;;5112744;27;20626;-67
2024/03/07 08:50:40;;;;;;;39.05;28.10;;;2.40;99.90;;;;;;5117790;27;20039;-67
2024/03/07 08:53:06;;;;;;;39.85;27.30;;;2.30;99.90;;;;;;5137737;27;20417;-66
2024/03/07 08:55:32;;;;;;;36.20;27.73;;;2.30;99.90;;;;;;5122621;27;20031;-67
2024/03/07 08:57:57;;;;;;;41.25;28.02;;;2.30;99.90;;;;;;5132334;27;20047;-67
2024/03/07 09:00:29;;;;;;;38.67;28.90;;;2.20;99.90;;;;;;5101968;27;20046;-67
2024/03/07 09:02:57;;;;;;;43.53;29.65;;;2.30;99.90;;;;;;5121647;27;20726;-67
2024/03/07 09:05:23;;;;;;;36.55;27.00;;;2.40;99.90;;;;;;5098419;28;20047;-67
2024/03/07 09:07:50;;;;;;;37.05;26.25;;;2.40;99.90;;;;;;5103218;27;20051;-67
2024/03/07 09:10:17;;;;;;;43.60;28.58;;;2.40;99.90;;;;;;5119626;27;20758;-67
2024/03/07 09:12:43;;;;;;;44.22;30.58;;;2.40;99.90;;;;;;5101214;28;20079;-67
2024/03/07 09:15:12;;;;;;;44.65;29.92;;;2.40;99.90;;;;;;5139974;27;20131;-67
2024/03/07 09:17:39;;;;;;;43.65;29.90;;;2.30;99.90;;;;;;5116281;27;20040;-67
2024/03/07 09:20:05;;;;;;;44.83;28.92;;;2.30;99.90;;;;;;5120233;27;20140;-67
2024/03/07 09:22:32;;;;;;;41.38;26.95;;;2.30;99.90;;;;;;5119691;27;20114;-67
2024/03/07 09:24:58;;;;;;;40.03;28.13;;;2.30;99.90;;;;;;5111573;27;20039;-67
2024/03/07 09:27:24;;;;;;;43.60;29.40;;;2.30;99.90;;;;;;5136869;27;20365;-67
2024/03/07 09:29:50;;;;;;;40.08;27.92;;;2.30;99.90;;;;;;5114848;27;20053;-67
2024/03/07 09:32:16;;;;;;;40.53;27.88;;;2.40;99.90;;;;;;5098646;27;20400;-66
2024/03/07 09:34:42;;;;;;;45.75;29.15;;;2.40;99.90;;;;;;5121154;27;20043;-66
2024/03/07 09:37:08;;;;;;;46.45;29.30;;;2.40;99.90;;;;;;5102226;28;20050;-67
2024/03/07 09:39:37;;;;;;;45.83;29.65;;;2.40;99.90;;;;;;5135866;27;20120;-67
2024/03/07 09:42:07;;;;;;;49.22;30.85;;;2.40;99.90;;;;;;5119815;27;20619;-67
2024/03/07 09:44:34;;;;;;;44.97;30.20;;;2.50;99.90;;;;;;5104735;28;21033;-67
2024/03/07 09:47:01;;;;;;;47.20;29.13;;;2.50;99.90;;;;;;5120976;27;20043;-67
2024/03/07 09:49:28;;;;;;;49.45;30.60;;;2.50;99.90;;;;;;5116214;27;20035;-67
2024/03/07 09:51:56;;;;;;;47.55;29.33;;;2.50;99.90;;;;;;5120200;27;20070;-67
2024/03/07 09:54:24;;;;;;;43.00;29.90;;;2.50;99.90;;;;;;5138366;27;20055;-66
2024/03/07 09:56:52;;;;;;;43.90;29.25;;;2.60;99.90;;;;;;5098230;28;20084;-66
2024/03/07 09:59:22;;;;;;;37.80;25.15;;;2.60;99.90;;;;;;5118052;28;20126;-66
2024/03/07 10:01:51;;;;;;;36.10;23.50;;;2.60;99.90;;;;;;5103281;28;20120;-66
2024/03/07 10:04:30;;;;;;;37.67;25.13;;;2.60;99.90;;;;;;5103293;28;20127;-66
2024/03/07 10:06:56;;;;;;;35.53;25.27;;;2.70;99.90;;;;;;5123324;28;20489;-67
2024/03/07 10:09:22;;;;;;;38.33;25.15;;;2.80;99.90;;;;;;5135525;27;20079;-66
2024/03/07 10:11:58;;;;;;;31.13;21.85;;;2.80;99.90;;;;;;5097110;27;20508;-66
2024/03/07 10:14:24;;;;;;;;;;;2.80;99.90;;;;;;5099630;28;20089;-66
2024/03/07 10:16:50;;;;;;;29.17;20.48;;;2.90;99.90;;;;;;5120837;28;19915;-66
2024/03/07 10:19:16;;;;;;;27.67;20.55;;;2.90;99.90;;;;;;5119207;28;20409;-66
2024/03/07 10:21:42;;;;;;;31.48;20.80;;;2.90;99.90;;;;;;5134013;27;20528;-67
2024/03/07 10:24:10;;;;;;;29.85;20.60;;;3.10;99.90;;;;;;5136510;27;20043;-66
2024/03/07 10:26:37;;;;;;;27.15;20.27;;;3.10;99.90;;;;;;5102343;28;20130;-66
2024/03/07 10:29:04;;;;;;;28.88;21.98;;;3.20;99.90;;;;;;5099654;27;20483;-66
2024/03/07 10:31:33;;;;;;;27.65;21.45;;;3.30;99.90;;;;;;5121283;28;20075;-66
2024/03/07 10:34:03;;;;;;;26.70;21.60;;;3.50;99.90;;;;;;5102693;28;20143;-66
2024/03/07 10:36:32;;;;;;;32.05;22.92;;;3.60;99.90;;;;;;5094687;28;20514;-66
2024/03/07 10:39:13;;;;;;;28.63;21.08;;;3.70;99.90;;;;;;5114300;28;20043;-66
2024/03/07 10:41:48;;;;;;;28.67;21.20;;;3.90;99.90;;;;;;5122469;28;20386;-66
2024/03/07 10:44:25;;;;;;;26.98;21.10;;;3.90;99.90;;;;;;5116441;27;20054;-66
2024/03/07 10:46:57;;;;;;;26.23;19.63;;;4.10;99.90;;;;;;5123426;27;20040;-66
2024/03/07 10:49:28;;;;;;;28.77;21.52;;;4.20;99.90;;;;;;5123146;27;20031;-67
2024/03/07 10:52:00;;;;;;;26.58;19.67;;;4.50;99.90;;;;;;5125113;27;20488;-66
2024/03/07 10:54:34;;;;;;;26.20;21.08;;;4.60;99.90;;;;;;5136350;27;20043;-66
2024/03/07 10:57:22;;;;;;;27.42;20.55;;;4.50;99.90;;;;;;5137193;27;20043;-66
2024/03/07 10:59:57;;;;;;;26.70;20.70;;;4.60;99.90;;;;;;5103453;27;20134;-66
2024/03/07 11:02:27;;;;;;;22.60;18.90;;;4.70;99.90;;;;;;5122527;27;20035;-66
2024/03/07 11:04:53;;;;;;;26.67;19.20;;;4.70;99.90;;;;;;5125194;27;20088;-66
2024/03/07 11:07:21;;;;;;;22.27;19.27;;;4.90;99.90;;;;;;5120905;27;20028;-67
2024/03/07 11:09:51;;;;;;;22.88;17.98;;;4.80;99.90;;;;;;5139693;27;20035;-67
2024/03/07 11:12:22;;;;;;;26.13;19.27;;;5.00;99.90;;;;;;5107394;27;20168;-67
2024/03/07 11:14:51;;;;;;;23.58;18.15;;;5.10;99.90;;;;;;5123696;27;20055;-67
2024/03/07 11:17:19;;;;;;;25.60;21.05;;;5.10;99.90;;;;;;5118696;27;20035;-66
2024/03/07 11:19:45;;;;;;;24.33;19.27;;;5.00;99.90;;;;;;5103637;27;20159;-67
2024/03/07 11:22:17;;;;;;;22.55;18.55;;;5.00;99.90;;;;;;5088936;27;20070;-67
2024/03/07 11:24:45;;;;;;;23.90;19.75;;;4.90;99.90;;;;;;5125658;27;20041;-66
2024/03/07 11:27:14;;;;;;;25.63;19.15;;;4.90;99.90;;;;;;5137519;27;20162;-67
2024/03/07 11:29:52;;;;;;;24.70;19.08;;;5.00;99.90;;;;;;5103070;27;20090;-66
2024/03/07 11:32:20;;;;;;;27.92;20.33;;;5.00;99.90;;;;;;5118977;27;20084;-66
2024/03/07 11:34:47;;;;;;;23.95;19.67;;;5.10;99.90;;;;;;5123768;27;20126;-66
2024/03/07 11:37:22;;;;;;;23.90;18.73;;;5.10;99.90;;;;;;5116839;27;20556;-66
2024/03/07 11:39:52;;;;;;;26.17;19.55;;;5.20;99.90;;;;;;5103096;27;20043;-66
2024/03/07 11:42:30;;;;;;;24.38;19.50;;;5.10;99.90;;;;;;5125810;27;20054;-67
2024/03/07 11:44:57;;;;;;;25.63;19.58;;;5.20;99.90;;;;;;5118213;27;20057;-66
2024/03/07 11:47:28;;;;;;;23.58;19.17;;;5.30;99.90;;;;;;5136077;27;20097;-66
2024/03/07 11:49:57;;;;;;;27.83;21.42;;;5.30;99.90;;;;;;5119596;27;20086;-66
2024/03/07 11:52:24;;;;;;;25.90;19.58;;;5.20;99.90;;;;;;5103002;27;20092;-66
2024/03/07 11:54:50;;;;;;;29.40;20.42;;;5.20;99.90;;;;;;5123797;27;20036;-66
2024/03/07 11:57:19;;;;;;;26.20;19.17;;;5.20;99.90;;;;;;5106078;27;20079;-66
2024/03/07 11:59:45;;;;;;;26.00;19.67;;;5.20;99.90;;;;;;5138751;27;20051;-66
2024/03/07 12:02:21;;;;;;;23.88;19.50;;;5.30;99.90;;;;;;5122418;27;20063;-66
2024/03/07 12:04:50;;;;;;;27.65;20.20;;;5.30;99.90;;;;;;5103825;27;20514;-66
2024/03/07 12:07:17;;;;;;;28.38;19.48;;;5.30;99.90;;;;;;5088355;27;20047;-66
2024/03/07 12:09:50;;;;;;;24.58;18.75;;;5.30;99.90;;;;;;5105007;27;20047;-66
2024/03/07 12:12:17;;;;;;;27.00;21.20;;;5.30;99.90;;;;;;5121602;27;20067;-66
2024/03/07 12:14:43;;;;;;;25.70;20.63;;;5.30;99.90;;;;;;5138095;27;20068;-66
2024/03/07 12:17:09;;;;;;;25.02;19.40;;;5.30;99.90;;;;;;5121151;27;20035;-66
2024/03/07 12:19:35;;;;;;;26.45;18.63;;;5.30;99.90;;;;;;5102113;27;20039;-66
2024/03/07 12:22:12;;;;;;;24.65;17.73;;;5.40;99.90;;;;;;5117566;27;20454;-66
2024/03/07 12:24:41;;;;;;;24.13;17.58;;;5.40;99.90;;;;;;5125727;27;20084;-67
2024/03/07 12:27:12;;;;;;;25.08;17.42;;;5.50;99.90;;;;;;5106507;27;20048;-66
2024/03/07 12:29:39;;;;;;;24.38;18.17;;;5.70;99.90;;;;;;5119454;27;20047;-66
2024/03/07 12:32:07;;;;;;;25.23;17.42;;;5.70;99.90;;;;;;5102755;27;20035;-66
2024/03/07 12:34:37;;;;;;;22.55;17.33;;;5.80;99.90;;;;;;5103377;27;20043;-66
2024/03/07 12:37:03;;;;;;;21.05;17.02;;;5.80;99.90;;;;;;5123861;27;20039;-66
2024/03/07 12:39:35;;;;;;;22.55;17.38;;;5.80;99.90;;;;;;5103816;27;20089;-66